createdAt,value
2022-12-24T00:01:36.953Z,9.39
2022-12-24T00:04:07.394Z,9.26
2022-12-24T00:06:36.060Z,9.38
2022-12-24T00:09:04.854Z,9.18
2022-12-24T00:11:33.304Z,9.23
2022-12-24T00:14:01.859Z,9.35
2022-12-24T00:16:30.381Z,9.24
2022-12-24T00:18:58.789Z,9.55
2022-12-24T00:21:28.578Z,9.55
2022-12-24T00:23:56.869Z,9.37
2022-12-24T00:26:25.333Z,9.61
2022-12-24T00:28:57.196Z,9.58
2022-12-24T00:31:26.126Z,9.36
2022-12-24T00:33:55.191Z,9.53
2022-12-24T00:36:23.775Z,9.54
2022-12-24T00:38:53.575Z,9.76
2022-12-24T00:41:29.345Z,9.74
2022-12-24T00:44:00.314Z,10.00
2022-12-24T00:46:30.263Z,9.79
2022-12-24T00:48:59.194Z,9.82
2022-12-24T00:51:28.062Z,9.96
2022-12-24T00:53:57.980Z,9.80
2022-12-24T00:56:27.126Z,9.83
2022-12-24T00:58:55.771Z,9.99
2022-12-24T01:01:25.367Z,9.72
2022-12-24T01:04:14.249Z,9.91
2022-12-24T01:06:42.058Z,9.67
2022-12-24T01:09:11.908Z,9.57
2022-12-24T01:11:40.201Z,9.39
2022-12-24T01:14:08.827Z,9.56
2022-12-24T01:16:37.092Z,9.86
2022-12-24T01:19:05.507Z,9.52
2022-12-24T01:21:33.640Z,9.87
2022-12-24T01:24:02.011Z,9.78
2022-12-24T01:26:31.495Z,9.85
2022-12-24T01:29:00.844Z,9.66
2022-12-24T01:31:29.491Z,9.72
2022-12-24T01:33:57.610Z,9.67
2022-12-24T01:36:25.950Z,9.65
2022-12-24T01:38:54.192Z,9.72
2022-12-24T01:41:41.446Z,9.65
2022-12-24T01:44:26.169Z,9.54
2022-12-24T01:47:04.930Z,9.82
2022-12-24T01:49:33.622Z,9.74
2022-12-24T01:52:06.454Z,9.64
2022-12-24T01:54:40.048Z,9.71
2022-12-24T01:57:16.329Z,9.71
2022-12-24T01:59:49.444Z,9.81
2022-12-24T02:02:19.158Z,9.75
2022-12-24T02:04:52.429Z,9.90
2022-12-24T02:07:20.903Z,9.76
2022-12-24T02:09:51.018Z,9.79
2022-12-24T02:12:19.382Z,9.87
2022-12-24T02:14:49.486Z,9.88
2022-12-24T02:17:28.417Z,10.04
2022-12-24T02:20:37.480Z,9.89
2022-12-24T02:23:31.205Z,9.89
2022-12-24T02:26:15.259Z,9.90
2022-12-24T02:29:12.739Z,9.81
2022-12-24T02:31:45.943Z,9.93
2022-12-24T02:34:20.763Z,9.95
2022-12-24T02:36:57.355Z,9.99
2022-12-24T02:39:34.492Z,9.75
2022-12-24T02:42:09.102Z,9.79
2022-12-24T02:44:42.433Z,10.03
2022-12-24T02:47:15.424Z,9.54
2022-12-24T02:49:46.371Z,9.70
2022-12-24T02:52:30.214Z,9.56
2022-12-24T02:55:02.133Z,9.76
2022-12-24T02:57:44.752Z,9.29
2022-12-24T03:00:17.870Z,9.58
2022-12-24T03:03:15.920Z,9.61
2022-12-24T03:05:50.335Z,9.59
2022-12-24T03:08:29.804Z,9.55
2022-12-24T03:11:03.108Z,9.59
2022-12-24T03:13:31.412Z,9.67
2022-12-24T03:16:00.360Z,9.55
2022-12-24T03:18:32.079Z,9.68
2022-12-24T03:21:07.616Z,9.77
2022-12-24T03:23:36.600Z,9.51
2022-12-24T03:26:09.028Z,9.70
2022-12-24T03:28:40.052Z,9.75
2022-12-24T03:31:10.190Z,9.84
2022-12-24T03:33:41.120Z,9.83
2022-12-24T03:36:10.898Z,9.67
2022-12-24T03:38:39.455Z,9.56
2022-12-24T03:41:07.657Z,9.87
2022-12-24T03:43:36.168Z,9.54
2022-12-24T03:46:06.439Z,9.85
2022-12-24T03:48:36.650Z,9.55
2022-12-24T03:51:18.991Z,9.49
2022-12-24T03:53:47.421Z,9.54
2022-12-24T03:56:15.900Z,9.50
2022-12-24T03:58:44.150Z,9.62
2022-12-24T04:01:12.557Z,9.76
2022-12-24T04:03:41.115Z,9.58
2022-12-24T04:06:15.012Z,9.54
2022-12-24T04:08:43.720Z,9.47
2022-12-24T04:11:14.237Z,9.37
2022-12-24T04:13:42.842Z,9.68
2022-12-24T04:16:14.260Z,9.57
2022-12-24T04:18:43.333Z,9.63
2022-12-24T04:21:13.341Z,9.62
2022-12-24T04:23:43.214Z,9.82
2022-12-24T04:26:13.371Z,9.77
2022-12-24T04:28:43.138Z,9.63
2022-12-24T04:31:13.932Z,9.74
2022-12-24T04:33:42.097Z,9.40
2022-12-24T04:36:17.089Z,9.57
2022-12-24T04:38:45.949Z,9.48
2022-12-24T04:41:23.108Z,9.51
2022-12-24T04:43:53.391Z,9.68
2022-12-24T04:46:23.609Z,9.54
2022-12-24T04:48:53.861Z,9.78
2022-12-24T04:51:24.673Z,9.46
2022-12-24T04:53:53.856Z,9.62
2022-12-24T04:56:24.438Z,9.48
2022-12-24T04:58:53.316Z,9.42
2022-12-24T05:01:23.863Z,9.35
2022-12-24T05:03:53.151Z,9.64
2022-12-24T05:06:24.183Z,9.29
2022-12-24T05:08:55.474Z,9.36
2022-12-24T05:11:24.319Z,9.52
2022-12-24T05:13:52.908Z,9.19
2022-12-24T05:16:23.117Z,9.29
2022-12-24T05:18:51.962Z,9.29
2022-12-24T05:21:22.309Z,9.55
2022-12-24T05:24:09.941Z,9.44
2022-12-24T05:26:42.636Z,9.55
2022-12-24T05:29:12.321Z,9.37
2022-12-24T05:31:41.372Z,9.50
2022-12-24T05:34:10.810Z,9.38
2022-12-24T05:36:39.812Z,9.35
2022-12-24T05:39:16.373Z,9.36
2022-12-24T05:41:45.524Z,9.26
2022-12-24T05:44:14.563Z,9.56
2022-12-24T05:46:43.632Z,9.33
2022-12-24T05:49:12.061Z,9.31
2022-12-24T05:51:41.269Z,9.56
2022-12-24T05:54:11.128Z,9.44
2022-12-24T05:56:40.030Z,9.50
2022-12-24T05:59:08.464Z,9.40
2022-12-24T06:01:37.058Z,9.26
2022-12-24T06:04:06.390Z,9.50
2022-12-24T06:06:35.155Z,9.00
2022-12-24T06:09:03.994Z,9.37
2022-12-24T06:11:33.637Z,9.29
2022-12-24T06:14:01.998Z,9.01
2022-12-24T06:16:31.299Z,9.19
2022-12-24T06:18:59.881Z,9.24
2022-12-24T06:21:28.723Z,8.89
2022-12-24T06:23:57.050Z,9.05
2022-12-24T06:26:25.442Z,9.23
2022-12-24T06:28:54.985Z,9.11
2022-12-24T06:31:24.609Z,8.89
2022-12-24T06:33:54.161Z,9.27
2022-12-24T06:36:25.699Z,9.12
2022-12-24T06:38:54.985Z,9.10
2022-12-24T06:41:24.717Z,9.24
2022-12-24T06:43:55.009Z,9.11
2022-12-24T06:46:24.176Z,8.84
2022-12-24T06:48:52.545Z,8.82
2022-12-24T06:51:21.693Z,8.88
2022-12-24T06:53:50.920Z,8.93
2022-12-24T06:56:19.871Z,8.97
2022-12-24T06:58:49.236Z,8.99
2022-12-24T07:01:21.696Z,8.97
2022-12-24T07:03:50.440Z,9.06
2022-12-24T07:06:21.393Z,8.79
2022-12-24T07:08:50.914Z,9.28
2022-12-24T07:11:20.162Z,8.89
2022-12-24T07:13:49.292Z,9.09
2022-12-24T07:16:19.489Z,9.02
2022-12-24T07:18:48.763Z,8.94
2022-12-24T07:21:17.634Z,8.75
2022-12-24T07:23:45.780Z,9.16
2022-12-24T07:26:14.449Z,8.99
2022-12-24T07:28:43.229Z,8.93
2022-12-24T07:31:11.596Z,9.12
2022-12-24T07:33:41.783Z,9.18
2022-12-24T07:36:15.710Z,9.24
2022-12-24T07:38:44.295Z,9.32
2022-12-24T07:41:12.599Z,9.28
2022-12-24T07:43:41.592Z,9.28
2022-12-24T07:46:09.918Z,9.14
2022-12-24T07:48:38.486Z,9.47
2022-12-24T07:51:09.514Z,10.14
2022-12-24T07:53:37.761Z,10.78
2022-12-24T07:56:12.514Z,11.29
2022-12-24T07:58:41.705Z,11.44
2022-12-24T08:01:11.022Z,10.87
2022-12-24T08:03:39.855Z,9.71
2022-12-24T08:06:10.549Z,9.92
2022-12-24T08:08:39.627Z,9.95
2022-12-24T08:11:09.102Z,10.36
2022-12-24T08:13:38.023Z,10.02
2022-12-24T08:16:07.574Z,10.49
2022-12-24T08:18:36.693Z,10.88
2022-12-24T08:21:07.885Z,12.11
2022-12-24T08:23:38.535Z,12.26
2022-12-24T08:26:09.015Z,12.48
2022-12-24T08:28:38.187Z,11.31
2022-12-24T08:31:08.196Z,10.80
2022-12-24T08:33:37.202Z,10.05
2022-12-24T08:36:06.235Z,9.87
2022-12-24T08:38:35.000Z,10.18
2022-12-24T08:41:06.097Z,10.36
2022-12-24T08:43:34.628Z,9.96
2022-12-24T08:46:05.189Z,10.18
2022-12-24T08:48:35.444Z,9.81
2022-12-24T08:51:08.257Z,10.03
2022-12-24T08:53:37.218Z,10.05
2022-12-24T08:56:09.827Z,10.19
2022-12-24T08:58:38.923Z,10.28
2022-12-24T09:01:13.853Z,10.06
2022-12-24T09:03:43.191Z,10.13
2022-12-24T09:06:12.613Z,9.71
2022-12-24T09:08:41.191Z,10.05
2022-12-24T09:11:14.790Z,9.83
2022-12-24T09:13:45.296Z,10.25
2022-12-24T09:16:14.332Z,9.99
2022-12-24T09:18:42.822Z,10.35
2022-12-24T09:21:15.541Z,10.31
2022-12-24T09:23:46.819Z,10.25
2022-12-24T09:26:19.191Z,10.14
2022-12-24T09:28:48.077Z,10.04
2022-12-24T09:31:18.087Z,10.06
2022-12-24T09:33:53.286Z,9.89
2022-12-24T09:36:22.977Z,9.79
2022-12-24T09:38:51.966Z,9.79
2022-12-24T09:41:36.531Z,10.07
2022-12-24T09:44:16.029Z,10.13
2022-12-24T09:46:48.596Z,10.73
2022-12-24T09:49:22.877Z,10.86
2022-12-24T09:51:55.793Z,10.98
2022-12-24T09:55:11.628Z,10.64
2022-12-24T09:57:43.933Z,10.71
2022-12-24T10:00:20.975Z,10.66
2022-12-24T10:05:42.311Z,10.50
2022-12-24T10:08:22.420Z,10.28
2022-12-24T10:10:54.362Z,10.14
2022-12-24T10:18:31.738Z,10.42
2022-12-24T10:21:07.099Z,10.40
2022-12-24T10:23:43.360Z,10.29
2022-12-24T10:26:18.345Z,10.66
2022-12-24T10:28:50.201Z,10.69
2022-12-24T10:31:22.080Z,10.54
2022-12-24T10:37:23.725Z,11.08
2022-12-24T10:39:52.740Z,10.99
2022-12-24T10:42:25.337Z,11.09
2022-12-24T10:44:58.820Z,11.04
2022-12-24T10:47:28.341Z,10.69
2022-12-24T10:50:04.716Z,10.59
2022-12-24T10:52:38.444Z,10.54
2022-12-24T10:55:12.557Z,10.79
2022-12-24T10:57:41.956Z,10.90
2022-12-24T11:00:21.039Z,10.88
2022-12-24T11:02:51.084Z,10.75
2022-12-24T11:05:31.431Z,11.01
2022-12-24T11:08:04.347Z,11.04
2022-12-24T11:10:34.838Z,11.54
2022-12-24T11:13:36.432Z,11.25
2022-12-24T11:16:01.240Z,10.85
2022-12-24T11:18:30.052Z,11.24
2022-12-24T11:21:00.964Z,11.27
2022-12-24T11:23:31.390Z,10.92
2022-12-24T11:26:00.449Z,11.08
2022-12-24T11:28:32.942Z,10.64
2022-12-24T11:31:05.538Z,11.23
2022-12-24T11:33:48.097Z,10.72
2022-12-24T11:36:22.745Z,10.93
2022-12-24T11:38:57.151Z,11.26
2022-12-24T11:41:27.988Z,11.27
2022-12-24T11:44:26.583Z,11.03
2022-12-24T11:46:57.278Z,11.21
2022-12-24T11:49:29.178Z,11.60
2022-12-24T11:52:13.562Z,11.79
2022-12-24T11:54:51.748Z,11.53
2022-12-24T11:57:26.972Z,10.73
2022-12-24T11:59:56.052Z,10.61
2022-12-24T12:02:30.071Z,10.52
2022-12-24T12:05:02.288Z,10.83
2022-12-24T12:07:35.630Z,10.65
2022-12-24T12:10:12.991Z,10.75
2022-12-24T12:12:43.974Z,10.83
2022-12-24T12:15:15.559Z,11.18
2022-12-24T12:17:50.382Z,10.86
2022-12-24T12:20:24.998Z,10.57
2022-12-24T12:23:00.360Z,10.80
2022-12-24T12:25:39.241Z,10.84
2022-12-24T12:28:15.098Z,10.78
2022-12-24T12:31:03.969Z,10.68
2022-12-24T12:33:38.954Z,10.88
2022-12-24T12:36:10.917Z,10.72
2022-12-24T12:38:41.593Z,11.00
2022-12-24T12:41:31.163Z,11.06
2022-12-24T12:44:23.980Z,11.08
2022-12-24T12:47:05.063Z,10.97
2022-12-24T12:49:43.486Z,10.92
2022-12-24T12:52:23.054Z,10.50
2022-12-24T12:55:06.515Z,11.04
2022-12-24T12:57:40.474Z,10.90
2022-12-24T13:00:17.282Z,10.63
2022-12-24T13:03:18.558Z,11.00
2022-12-24T13:06:13.718Z,10.89
2022-12-24T13:09:17.367Z,10.83
2022-12-24T13:11:59.561Z,10.77
2022-12-24T13:14:47.327Z,10.81
2022-12-24T13:17:39.804Z,10.89
2022-12-24T13:20:23.209Z,10.86
2022-12-24T13:22:59.285Z,10.73
2022-12-24T13:25:33.322Z,11.05
2022-12-24T13:28:17.572Z,10.81
2022-12-24T13:30:49.412Z,10.65
2022-12-24T13:33:49.646Z,10.86
2022-12-24T13:36:20.241Z,10.91
2022-12-24T13:38:49.813Z,10.98
2022-12-24T13:41:54.888Z,10.74
2022-12-24T13:44:33.823Z,10.55
2022-12-24T13:47:30.157Z,10.15
2022-12-24T13:50:16.094Z,10.22
2022-12-24T13:52:53.542Z,10.12
2022-12-24T13:55:23.086Z,9.63
2022-12-24T13:57:57.935Z,9.85
2022-12-24T14:00:41.367Z,9.87
2022-12-24T14:03:25.321Z,10.23
2022-12-24T14:05:58.360Z,10.35
2022-12-24T14:08:37.026Z,10.44
2022-12-24T14:11:11.277Z,10.18
2022-12-24T14:14:26.739Z,10.19
2022-12-24T14:16:58.397Z,10.44
2022-12-24T14:19:37.510Z,9.99
2022-12-24T14:22:20.834Z,10.12
2022-12-24T14:24:54.963Z,10.05
2022-12-24T14:27:30.316Z,10.00
2022-12-24T14:30:04.567Z,9.83
2022-12-24T14:32:39.705Z,9.76
2022-12-24T14:35:16.319Z,9.88
2022-12-24T14:37:48.617Z,9.69
2022-12-24T14:40:19.848Z,9.73
2022-12-24T14:42:56.548Z,9.88
2022-12-24T14:45:33.294Z,10.18
2022-12-24T14:48:13.665Z,10.11
2022-12-24T14:50:58.559Z,10.25
2022-12-24T14:53:43.113Z,10.41
2022-12-24T14:56:15.894Z,10.58
2022-12-24T14:58:45.051Z,10.33
2022-12-24T15:01:23.082Z,10.52
2022-12-24T15:04:06.627Z,10.51
2022-12-24T15:06:40.123Z,10.27
2022-12-24T15:09:16.283Z,10.38
2022-12-24T15:11:45.831Z,10.31
2022-12-24T15:14:15.345Z,10.36
2022-12-24T15:16:49.368Z,10.28
2022-12-24T15:19:25.941Z,10.20
2022-12-24T15:21:56.647Z,10.22
2022-12-24T15:24:27.592Z,10.21
2022-12-24T15:26:56.501Z,10.11
2022-12-24T15:29:27.425Z,9.99
2022-12-24T15:31:57.528Z,9.99
2022-12-24T15:34:31.373Z,9.80
2022-12-24T15:37:13.595Z,10.02
2022-12-24T15:39:42.533Z,10.00
2022-12-24T15:42:16.068Z,10.15
2022-12-24T15:44:48.862Z,9.86
2022-12-24T15:47:20.800Z,9.92
2022-12-24T15:49:53.348Z,10.09
2022-12-24T15:52:25.454Z,10.07
2022-12-24T15:54:58.057Z,9.91
2022-12-24T15:57:32.023Z,10.23
2022-12-24T16:00:01.988Z,10.09
2022-12-24T16:02:41.501Z,10.06
2022-12-24T16:05:21.105Z,9.99
2022-12-24T16:08:17.220Z,10.32
2022-12-24T16:10:48.089Z,10.22
2022-12-24T16:13:20.500Z,10.17
2022-12-24T16:15:54.577Z,10.02
2022-12-24T16:18:27.019Z,9.99
2022-12-24T16:20:57.102Z,9.85
2022-12-24T16:23:30.048Z,9.84
2022-12-24T16:25:59.595Z,9.46
2022-12-24T16:28:28.286Z,9.68
2022-12-24T16:30:57.669Z,9.80
2022-12-24T16:33:26.195Z,9.70
2022-12-24T16:35:55.434Z,9.76
2022-12-24T16:38:24.359Z,9.58
2022-12-24T16:40:54.128Z,9.37
2022-12-24T16:43:39.666Z,9.74
2022-12-24T16:46:08.600Z,9.78
2022-12-24T16:48:39.397Z,9.76
2022-12-24T16:51:07.838Z,9.91
2022-12-24T16:53:36.529Z,9.76
2022-12-24T16:56:07.037Z,10.06
2022-12-24T16:58:35.711Z,9.86
2022-12-24T17:01:09.521Z,9.73
2022-12-24T17:03:38.870Z,9.94
2022-12-24T17:06:09.448Z,9.96
2022-12-24T17:08:38.121Z,9.27
2022-12-24T17:11:08.067Z,8.72
2022-12-24T17:13:36.210Z,8.91
2022-12-24T17:16:05.084Z,9.11
2022-12-24T17:18:33.364Z,9.31
2022-12-24T17:21:03.803Z,9.19
2022-12-24T17:23:32.338Z,9.39
2022-12-24T17:26:00.689Z,9.29
2022-12-24T17:28:30.457Z,9.21
2022-12-24T17:30:59.201Z,9.38
2022-12-24T17:33:27.379Z,9.20
2022-12-24T17:35:55.567Z,8.81
2022-12-24T17:38:23.881Z,8.72
2022-12-24T17:40:52.662Z,8.78
2022-12-24T17:43:20.972Z,8.64
2022-12-24T17:45:50.897Z,8.69
2022-12-24T17:48:19.442Z,8.75
2022-12-24T17:50:47.813Z,8.67
2022-12-24T17:53:16.310Z,8.61
2022-12-24T17:55:45.491Z,8.49
2022-12-24T17:58:15.357Z,8.46
2022-12-24T18:00:44.816Z,8.35
2022-12-24T18:03:15.799Z,8.32
2022-12-24T18:05:44.233Z,8.46
2022-12-24T18:08:12.387Z,8.54
2022-12-24T18:10:40.977Z,8.50
2022-12-24T18:13:15.681Z,8.54
2022-12-24T18:15:47.823Z,8.31
2022-12-24T18:18:18.092Z,8.35
2022-12-24T18:20:47.183Z,8.09
2022-12-24T18:23:15.468Z,7.78
2022-12-24T18:25:43.762Z,7.92
2022-12-24T18:28:12.404Z,7.99
2022-12-24T18:30:40.870Z,8.00
2022-12-24T18:33:09.223Z,8.02
2022-12-24T18:35:39.588Z,8.23
2022-12-24T18:38:07.962Z,8.30
2022-12-24T18:40:38.182Z,8.49
2022-12-24T18:43:06.510Z,8.60
2022-12-24T18:45:35.466Z,8.45
2022-12-24T18:48:03.886Z,8.42
2022-12-24T18:50:32.348Z,8.26
2022-12-24T18:53:02.115Z,8.23
2022-12-24T18:55:30.551Z,8.18
2022-12-24T18:57:59.009Z,8.04
2022-12-24T19:00:27.351Z,8.02
2022-12-24T19:02:55.958Z,7.88
2022-12-24T19:05:24.422Z,7.87
2022-12-24T19:07:52.578Z,7.58
2022-12-24T19:10:22.532Z,7.56
2022-12-24T19:12:51.437Z,7.17
2022-12-24T19:15:20.077Z,7.14
2022-12-24T19:17:48.702Z,7.19
2022-12-24T19:20:17.697Z,7.08
2022-12-24T19:22:45.890Z,7.14
2022-12-24T19:25:14.471Z,7.32
2022-12-24T19:27:44.771Z,7.41
2022-12-24T19:30:14.773Z,7.56
2022-12-24T19:32:43.014Z,7.67
2022-12-24T19:35:11.443Z,7.81
2022-12-24T19:37:39.890Z,7.96
2022-12-24T19:40:09.474Z,7.96
2022-12-24T19:42:37.989Z,7.89
2022-12-24T19:45:09.920Z,8.10
2022-12-24T19:47:38.229Z,8.39
2022-12-24T19:50:08.188Z,8.32
2022-12-24T19:52:36.684Z,8.46
2022-12-24T19:55:06.824Z,8.49
2022-12-24T19:57:35.272Z,8.60
2022-12-24T20:00:03.610Z,8.62
2022-12-24T20:02:43.097Z,8.64
2022-12-24T20:05:11.815Z,8.78
2022-12-24T20:07:40.201Z,8.60
2022-12-24T20:10:10.230Z,8.43
2022-12-24T20:12:38.607Z,8.47
2022-12-24T20:15:07.975Z,8.56
2022-12-24T20:17:36.266Z,8.62
2022-12-24T20:20:07.282Z,8.76
2022-12-24T20:22:35.493Z,8.93
2022-12-24T20:25:03.785Z,9.02
2022-12-24T20:27:32.275Z,8.91
2022-12-24T20:30:00.839Z,8.84
2022-12-24T20:32:29.648Z,8.42
2022-12-24T20:34:57.966Z,8.47
2022-12-24T20:37:27.479Z,8.47
2022-12-24T20:39:55.544Z,8.10
2022-12-24T20:42:24.635Z,8.12
2022-12-24T20:44:53.111Z,8.24
2022-12-24T20:47:21.803Z,8.22
2022-12-24T20:49:50.195Z,8.30
2022-12-24T20:52:18.348Z,8.17
2022-12-24T20:54:48.047Z,8.13
2022-12-24T20:57:21.676Z,8.16
2022-12-24T20:59:53.300Z,8.34
2022-12-24T21:02:22.033Z,8.48
2022-12-24T21:04:50.618Z,8.63
2022-12-24T21:07:19.358Z,8.36
2022-12-24T21:09:49.011Z,8.21
2022-12-24T21:12:34.827Z,8.30
2022-12-24T21:15:03.143Z,8.27
2022-12-24T21:17:31.964Z,8.12
2022-12-24T21:20:00.790Z,8.13
2022-12-24T21:22:29.041Z,8.05
2022-12-24T21:24:59.024Z,7.95
2022-12-24T21:27:27.405Z,7.62
2022-12-24T21:29:55.642Z,7.47
2022-12-24T21:32:23.708Z,7.60
2022-12-24T21:34:52.316Z,7.65
2022-12-24T21:37:21.459Z,7.50
2022-12-24T21:39:50.875Z,7.21
2022-12-24T21:42:20.735Z,7.51
2022-12-24T21:44:49.296Z,7.74
2022-12-24T21:47:17.624Z,8.13
2022-12-24T21:50:03.620Z,8.41
2022-12-24T21:52:32.481Z,8.39
2022-12-24T21:54:59.825Z,8.51
2022-12-24T21:57:47.319Z,8.10
2022-12-24T22:00:26.904Z,8.50
2022-12-24T22:02:58.594Z,8.54
2022-12-24T22:05:28.561Z,8.52
2022-12-24T22:08:14.641Z,8.39
2022-12-24T22:11:00.211Z,8.21
2022-12-24T22:13:34.496Z,8.23
2022-12-24T22:16:02.924Z,8.13
2022-12-24T22:18:31.186Z,7.96
2022-12-24T22:21:03.147Z,8.11
2022-12-24T22:23:35.857Z,8.02
2022-12-24T22:26:12.132Z,7.87
2022-12-24T22:28:42.027Z,7.89
2022-12-24T22:31:17.785Z,8.19
2022-12-24T22:33:46.666Z,8.19
2022-12-24T22:36:14.847Z,8.01
2022-12-24T22:38:43.739Z,7.98
2022-12-24T22:41:14.089Z,8.01
2022-12-24T22:43:44.346Z,8.17
2022-12-24T22:46:14.740Z,7.93
2022-12-24T22:48:44.385Z,8.10
2022-12-24T22:51:15.133Z,8.32
2022-12-24T22:53:43.332Z,8.32
2022-12-24T22:56:16.672Z,8.46
2022-12-24T22:58:46.933Z,8.34
2022-12-24T23:01:15.391Z,8.18
2022-12-24T23:03:43.717Z,8.09
2022-12-24T23:06:12.053Z,8.06
2022-12-24T23:08:40.675Z,8.14
2022-12-24T23:11:10.539Z,8.02
2022-12-24T23:13:58.193Z,7.85
2022-12-24T23:16:29.920Z,7.98
2022-12-24T23:18:59.865Z,7.98
2022-12-24T23:21:29.300Z,7.97
2022-12-24T23:23:58.268Z,7.72
2022-12-24T23:26:27.362Z,7.78
2022-12-24T23:28:56.160Z,7.96
2022-12-24T23:31:25.613Z,8.13
2022-12-24T23:33:55.800Z,8.16
2022-12-24T23:36:23.916Z,8.24
2022-12-24T23:38:54.345Z,8.18
2022-12-24T23:41:23.410Z,8.26
2022-12-24T23:43:51.911Z,8.22
2022-12-24T23:46:21.457Z,8.14
2022-12-24T23:48:53.756Z,8.19
2022-12-24T23:51:27.867Z,7.98
2022-12-24T23:53:58.073Z,8.17
2022-12-24T23:56:27.277Z,8.10
2022-12-24T23:58:55.410Z,8.03
